createdAt,value
2017-11-30T00:02:20.870Z,3.40
2017-11-30T00:04:49.153Z,3.40
2017-11-30T00:07:17.424Z,3.40
2017-11-30T00:09:45.692Z,3.40
2017-11-30T00:12:13.968Z,3.40
2017-11-30T00:14:41.480Z,3.40
2017-11-30T00:17:08.984Z,3.40
2017-11-30T00:19:36.485Z,3.40
2017-11-30T00:22:03.993Z,3.40
2017-11-30T00:24:31.520Z,3.40
2017-11-30T00:26:59.029Z,3.40
2017-11-30T00:29:27.297Z,3.40
2017-11-30T00:31:55.568Z,3.40
2017-11-30T00:34:23.066Z,3.30
2017-11-30T00:36:50.576Z,3.40
2017-11-30T00:39:18.077Z,3.40
2017-11-30T00:41:45.597Z,3.30
2017-11-30T00:44:24.983Z,3.30
2017-11-30T00:46:52.501Z,3.30
2017-11-30T00:49:20.021Z,3.30
2017-11-30T00:51:47.548Z,3.30
2017-11-30T00:54:15.065Z,3.20
2017-11-30T00:56:43.333Z,3.20
2017-11-30T00:59:10.833Z,3.10
2017-11-30T01:01:39.093Z,3.10
2017-11-30T01:04:07.369Z,3.10
2017-11-30T01:06:35.656Z,3.10
2017-11-30T01:09:03.917Z,3.10
2017-11-30T01:11:32.186Z,3.10
2017-11-30T01:13:59.692Z,3.10
2017-11-30T01:16:27.205Z,3.10
2017-11-30T01:18:54.714Z,3.10
2017-11-30T01:21:28.286Z,3.10
2017-11-30T01:23:56.565Z,3.10
2017-11-30T01:26:24.078Z,3.10
2017-11-30T01:28:51.573Z,3.10
2017-11-30T01:31:19.861Z,3.10
2017-11-30T01:33:47.360Z,3.10
2017-11-30T01:36:14.874Z,3.10
2017-11-30T01:38:43.155Z,3.00
2017-11-30T01:41:10.659Z,3.00
2017-11-30T01:43:38.172Z,3.00
2017-11-30T01:46:05.680Z,2.90
2017-11-30T01:48:33.186Z,2.90
2017-11-30T01:51:00.693Z,2.90
2017-11-30T01:53:28.195Z,2.90
2017-11-30T01:55:56.679Z,2.90
2017-11-30T01:58:24.977Z,2.90
2017-11-30T02:00:52.485Z,2.90
2017-11-30T02:03:19.989Z,2.90
2017-11-30T02:05:47.499Z,2.90
2017-11-30T02:08:15.001Z,2.80
2017-11-30T02:10:42.500Z,2.80
2017-11-30T02:13:10.213Z,2.80
2017-11-30T02:15:38.497Z,2.80
2017-11-30T02:18:05.995Z,2.80
2017-11-30T02:20:33.509Z,2.80
2017-11-30T02:23:01.797Z,2.70
2017-11-30T02:25:29.310Z,2.70
2017-11-30T02:27:57.001Z,2.70
2017-11-30T02:30:25.268Z,2.80
2017-11-30T02:32:53.537Z,2.80
2017-11-30T02:35:21.053Z,2.70
2017-11-30T02:37:48.557Z,2.80
2017-11-30T02:40:16.824Z,2.70
2017-11-30T02:42:44.317Z,2.70
2017-11-30T02:45:11.814Z,2.70
2017-11-30T02:47:39.319Z,2.70
2017-11-30T02:50:07.802Z,2.70
2017-11-30T02:52:35.332Z,2.70
2017-11-30T02:55:03.023Z,2.80
2017-11-30T02:57:30.452Z,2.80
2017-11-30T02:59:57.958Z,2.80
2017-11-30T03:02:25.478Z,2.80
2017-11-30T03:17:48.662Z,3.10
2017-11-30T03:20:16.180Z,3.10
2017-11-30T03:22:43.696Z,3.10
2017-11-30T03:25:11.188Z,3.10
2017-11-30T03:27:38.708Z,3.00
2017-11-30T03:30:06.226Z,3.00
2017-11-30T03:32:34.483Z,2.90
2017-11-30T03:35:01.997Z,2.90
2017-11-30T03:37:29.506Z,2.90
2017-11-30T03:39:57.019Z,2.90
2017-11-30T03:42:24.520Z,2.90
2017-11-30T03:44:52.023Z,2.80
2017-11-30T03:47:19.541Z,2.80
2017-11-30T03:49:47.044Z,2.90
2017-11-30T03:52:14.545Z,2.90
2017-11-30T03:54:42.062Z,2.90
2017-11-30T03:57:09.568Z,2.90
2017-11-30T03:59:37.078Z,3.00
2017-11-30T04:02:04.713Z,3.00
2017-11-30T04:04:32.996Z,3.00
2017-11-30T04:07:00.524Z,3.00
2017-11-30T04:09:28.030Z,3.00
2017-11-30T04:11:55.529Z,3.00
2017-11-30T04:14:23.038Z,3.00
2017-11-30T04:16:50.649Z,3.00
2017-11-30T04:19:18.141Z,3.10
2017-11-30T04:21:46.401Z,3.10
2017-11-30T04:24:13.916Z,3.10
2017-11-30T04:26:41.413Z,3.10
2017-11-30T04:29:08.924Z,3.10
2017-11-30T04:31:36.429Z,3.10
2017-11-30T04:34:03.927Z,3.10
2017-11-30T04:36:31.432Z,3.10
2017-11-30T04:38:58.932Z,3.10
2017-11-30T04:41:27.192Z,3.10
2017-11-30T04:43:55.474Z,3.10
2017-11-30T04:46:23.856Z,3.10
2017-11-30T04:48:52.132Z,3.10
2017-11-30T04:51:20.417Z,3.10
2017-11-30T04:53:48.677Z,3.10
2017-11-30T04:56:16.948Z,3.10
2017-11-30T04:58:45.224Z,3.10
2017-11-30T05:01:12.725Z,3.10
2017-11-30T05:03:40.221Z,3.10
2017-11-30T05:06:07.768Z,3.10
2017-11-30T05:08:35.259Z,3.10
2017-11-30T05:11:03.541Z,3.10
2017-11-30T05:13:31.820Z,3.00
2017-11-30T05:16:00.085Z,3.00
2017-11-30T05:18:28.385Z,3.00
2017-11-30T05:20:56.861Z,3.00
2017-11-30T05:23:25.126Z,3.00
2017-11-30T05:25:53.414Z,3.00
2017-11-30T05:28:21.689Z,2.90
2017-11-30T05:30:49.952Z,2.90
2017-11-30T05:33:18.448Z,2.90
2017-11-30T05:35:45.965Z,2.90
2017-11-30T05:38:13.464Z,2.90
2017-11-30T05:40:41.732Z,2.90
2017-11-30T05:43:10.009Z,2.80
2017-11-30T05:45:38.281Z,2.80
2017-11-30T05:48:06.569Z,2.80
2017-11-30T05:50:34.844Z,2.80
2017-11-30T05:53:03.105Z,2.90
2017-11-30T05:55:30.606Z,2.80
2017-11-30T05:57:58.113Z,2.90
2017-11-30T06:00:25.621Z,2.90
2017-11-30T06:02:53.140Z,2.90
2017-11-30T06:05:20.639Z,2.80
2017-11-30T06:07:48.165Z,2.80
2017-11-30T06:10:16.425Z,2.60
2017-11-30T06:12:43.926Z,2.60
2017-11-30T06:15:11.430Z,2.60
2017-11-30T06:17:38.933Z,2.60
2017-11-30T06:20:06.432Z,2.60
2017-11-30T06:22:33.932Z,2.60
2017-11-30T06:25:02.214Z,2.60
2017-11-30T06:27:30.476Z,2.60
2017-11-30T06:29:58.002Z,2.60
2017-11-30T06:32:25.526Z,2.50
2017-11-30T06:34:53.028Z,2.50
2017-11-30T06:37:20.541Z,2.50
2017-11-30T06:39:48.053Z,2.50
2017-11-30T06:42:15.557Z,2.50
2017-11-30T06:44:43.053Z,2.60
2017-11-30T06:47:10.569Z,2.60
2017-11-30T06:49:38.074Z,2.50
2017-11-30T06:52:05.578Z,2.50
2017-11-30T06:54:33.849Z,2.50
2017-11-30T06:57:02.112Z,2.50
2017-11-30T06:59:30.398Z,2.50
2017-11-30T07:01:58.664Z,2.50
2017-11-30T07:04:26.173Z,2.50
2017-11-30T07:06:53.674Z,2.50
2017-11-30T07:09:21.364Z,2.50
2017-11-30T07:11:49.628Z,2.50
2017-11-30T07:14:17.895Z,2.50
2017-11-30T07:16:45.394Z,2.50
2017-11-30T07:19:12.906Z,2.50
2017-11-30T07:21:40.401Z,2.50
2017-11-30T07:24:07.912Z,2.50
2017-11-30T07:26:35.408Z,2.50
2017-11-30T07:29:03.681Z,2.50
2017-11-30T07:31:31.949Z,2.60
2017-11-30T07:34:00.229Z,2.70
2017-11-30T07:36:28.498Z,2.70
2017-11-30T07:38:56.780Z,2.70
2017-11-30T07:41:25.053Z,2.70
2017-11-30T07:43:53.345Z,2.70
2017-11-30T07:46:20.993Z,2.70
2017-11-30T07:48:49.284Z,2.80
2017-11-30T07:51:17.568Z,2.70
2017-11-30T07:53:45.081Z,2.80
2017-11-30T07:56:12.588Z,2.80
2017-11-30T07:58:40.105Z,2.80
2017-11-30T08:01:07.632Z,2.80
2017-11-30T08:03:35.136Z,2.80
2017-11-30T08:06:03.406Z,2.80
2017-11-30T08:08:31.689Z,2.80
2017-11-30T08:10:59.953Z,2.90
2017-11-30T08:13:27.468Z,2.90
2017-11-30T08:15:54.976Z,3.00
2017-11-30T08:18:22.599Z,3.10
2017-11-30T08:20:50.126Z,3.20
2017-11-30T08:23:17.626Z,3.20
2017-11-30T08:25:45.150Z,3.30
2017-11-30T08:28:12.693Z,3.30
2017-11-30T08:30:41.001Z,3.40
2017-11-30T08:33:08.613Z,3.40
2017-11-30T08:35:36.893Z,3.40
2017-11-30T08:38:05.164Z,3.40
2017-11-30T08:40:33.432Z,3.50
2017-11-30T08:43:00.949Z,3.50
2017-11-30T08:45:28.464Z,3.50
2017-11-30T08:47:56.741Z,3.40
2017-11-30T08:50:25.008Z,3.40
2017-11-30T08:52:52.506Z,3.40
2017-11-30T08:55:20.025Z,3.40
2017-11-30T08:57:47.527Z,3.50
2017-11-30T09:00:15.028Z,3.50
2017-11-30T09:02:42.558Z,3.50
2017-11-30T09:05:10.055Z,3.50
2017-11-30T09:07:37.695Z,3.50
2017-11-30T09:10:05.252Z,3.50
2017-11-30T09:12:32.956Z,3.50
2017-11-30T09:15:00.516Z,3.50
2017-11-30T09:17:28.780Z,3.60
2017-11-30T09:19:57.046Z,3.50
2017-11-30T09:22:24.556Z,3.50
2017-11-30T09:24:52.077Z,3.50
2017-11-30T09:27:20.340Z,3.50
2017-11-30T09:29:47.954Z,3.50
2017-11-30T09:32:15.464Z,3.60
2017-11-30T09:34:42.977Z,3.60
2017-11-30T09:37:10.492Z,3.70
2017-11-30T09:39:38.805Z,3.70
2017-11-30T09:42:06.318Z,3.70
2017-11-30T09:44:33.829Z,3.70
2017-11-30T09:47:01.328Z,3.80
2017-11-30T09:49:28.936Z,3.80
2017-11-30T09:51:56.450Z,3.80
2017-11-30T09:54:23.950Z,3.80
2017-11-30T09:56:51.452Z,3.80
2017-11-30T09:59:18.957Z,3.80
2017-11-30T10:01:46.465Z,3.90
2017-11-30T10:04:13.970Z,3.90
2017-11-30T10:06:42.245Z,3.90
2017-11-30T10:09:10.544Z,3.90
2017-11-30T10:11:38.040Z,3.90
2017-11-30T10:14:05.543Z,3.80
2017-11-30T10:16:33.053Z,3.70
2017-11-30T10:19:00.543Z,3.50
2017-11-30T10:21:28.801Z,3.40
2017-11-30T10:23:56.296Z,3.40
2017-11-30T10:26:23.792Z,3.40
2017-11-30T10:28:51.292Z,3.30
2017-11-30T10:31:19.552Z,3.30
2017-11-30T10:33:47.824Z,3.30
2017-11-30T10:36:15.319Z,3.30
2017-11-30T10:38:43.389Z,3.40
2017-11-30T10:41:11.668Z,3.30
2017-11-30T10:43:39.181Z,3.30
2017-11-30T10:46:06.668Z,3.40
2017-11-30T10:48:34.944Z,3.40
2017-11-30T10:51:03.325Z,3.30
2017-11-30T10:53:31.576Z,3.30
2017-11-30T10:55:59.068Z,3.30
2017-11-30T10:58:27.363Z,3.40
2017-11-30T11:00:54.866Z,3.40
2017-11-30T11:03:22.393Z,3.40
2017-11-30T11:05:50.120Z,3.40
2017-11-30T11:08:18.385Z,3.40
2017-11-30T11:10:46.653Z,3.40
2017-11-30T11:13:14.149Z,3.40
2017-11-30T11:15:41.656Z,3.40
2017-11-30T11:18:09.207Z,3.40
2017-11-30T11:20:36.705Z,3.40
2017-11-30T11:23:04.962Z,3.30
2017-11-30T11:25:32.453Z,3.30
2017-11-30T11:27:59.957Z,3.20
2017-11-30T11:30:27.450Z,3.10
2017-11-30T11:32:55.716Z,3.00
2017-11-30T11:35:23.209Z,3.00
2017-11-30T11:37:50.696Z,3.00
2017-11-30T11:40:18.180Z,3.00
2017-11-30T11:42:45.693Z,3.10
2017-11-30T11:45:13.202Z,3.00
2017-11-30T11:47:40.696Z,3.00
2017-11-30T11:50:08.201Z,3.00
2017-11-30T11:52:35.904Z,2.90
2017-11-30T11:55:04.276Z,2.70
2017-11-30T11:57:32.545Z,2.70
2017-11-30T12:00:00.812Z,2.70
2017-11-30T12:02:28.301Z,2.60
2017-11-30T12:04:55.812Z,2.80
2017-11-30T12:07:23.331Z,3.00
2017-11-30T12:09:50.829Z,3.00
2017-11-30T12:12:18.325Z,2.80
2017-11-30T12:14:46.594Z,2.60
2017-11-30T12:17:14.928Z,2.40
2017-11-30T12:19:42.420Z,2.40
2017-11-30T12:22:09.921Z,2.50
2017-11-30T12:24:37.417Z,2.40
2017-11-30T12:27:04.938Z,2.30
2017-11-30T12:29:32.457Z,2.40
2017-11-30T12:32:00.745Z,2.30
2017-11-30T12:34:29.020Z,2.20
2017-11-30T12:36:57.299Z,2.30
2017-11-30T12:39:25.577Z,2.20
2017-11-30T12:41:53.844Z,2.20
2017-11-30T12:44:22.332Z,2.20
2017-11-30T12:46:50.718Z,2.10
2017-11-30T12:49:18.337Z,2.10
2017-11-30T12:51:45.833Z,2.20
2017-11-30T12:54:15.597Z,2.30
2017-11-30T12:56:44.512Z,2.30
2017-11-30T12:59:12.120Z,2.20
2017-11-30T13:01:39.619Z,2.40
2017-11-30T13:04:07.127Z,2.40
2017-11-30T13:06:34.625Z,2.30
2017-11-30T13:09:02.118Z,2.20
2017-11-30T13:11:30.379Z,2.30
2017-11-30T13:13:57.875Z,2.30
2017-11-30T13:16:25.375Z,2.30
2017-11-30T13:18:52.871Z,2.30
2017-11-30T13:21:21.350Z,2.10
2017-11-30T13:23:49.619Z,2.10
2017-11-30T13:26:17.118Z,2.10
2017-11-30T13:28:44.615Z,2.10
2017-11-30T13:31:12.134Z,2.30
2017-11-30T13:33:39.631Z,2.10
2017-11-30T13:36:07.139Z,2.20
2017-11-30T13:38:34.644Z,2.20
2017-11-30T13:41:02.135Z,2.20
2017-11-30T13:43:30.407Z,2.40
2017-11-30T13:45:58.687Z,2.40
2017-11-30T13:48:26.948Z,2.30
2017-11-30T13:50:54.444Z,2.30
2017-11-30T13:53:21.943Z,2.40
2017-11-30T13:55:49.451Z,2.40
2017-11-30T13:58:21.307Z,2.20
2017-11-30T14:00:49.569Z,2.10
2017-11-30T14:03:17.840Z,2.30
2017-11-30T14:05:45.341Z,2.20
2017-11-30T14:08:12.840Z,2.30
2017-11-30T14:10:40.358Z,2.20
2017-11-30T14:13:07.871Z,2.20
2017-11-30T14:15:35.372Z,2.20
2017-11-30T14:18:02.870Z,2.20
2017-11-30T14:20:33.115Z,2.20
2017-11-30T14:23:01.375Z,2.30
2017-11-30T14:25:28.879Z,2.30
2017-11-30T14:27:58.662Z,2.40
2017-11-30T14:30:26.158Z,2.40
2017-11-30T14:32:53.655Z,2.30
2017-11-30T14:35:21.147Z,2.30
2017-11-30T14:50:43.579Z,2.70
2017-11-30T14:53:11.848Z,2.70
2017-11-30T14:55:40.116Z,2.70
2017-11-30T14:58:07.614Z,2.60
2017-11-30T15:00:35.154Z,2.70
2017-11-30T15:03:02.667Z,2.60
2017-11-30T15:05:30.167Z,2.60
2017-11-30T15:07:58.427Z,2.50
2017-11-30T15:10:26.711Z,2.50
2017-11-30T15:12:54.989Z,2.50
2017-11-30T15:15:23.271Z,2.40
2017-11-30T15:17:51.541Z,2.40
2017-11-30T15:20:19.803Z,2.40
2017-11-30T15:22:47.304Z,2.40
2017-11-30T15:25:14.916Z,2.40
2017-11-30T15:27:42.425Z,2.40
2017-11-30T15:30:09.945Z,2.40
2017-11-30T15:32:38.223Z,2.50
2017-11-30T15:35:06.495Z,2.50
2017-11-30T15:37:34.762Z,2.50
2017-11-30T15:40:02.284Z,2.40
2017-11-30T15:42:29.819Z,2.40
2017-11-30T15:44:57.348Z,2.40
2017-11-30T15:47:25.635Z,2.40
2017-11-30T15:49:53.132Z,2.40
2017-11-30T15:52:20.633Z,2.40
2017-11-30T15:54:48.311Z,2.30
2017-11-30T15:57:16.695Z,2.40
2017-11-30T15:59:44.959Z,2.40
2017-11-30T16:02:12.471Z,2.40
2017-11-30T16:04:39.974Z,2.50
2017-11-30T16:07:07.499Z,2.50
2017-11-30T16:09:34.999Z,2.50
2017-11-30T16:12:03.276Z,2.50
2017-11-30T16:14:31.555Z,2.50
2017-11-30T16:16:59.827Z,2.50
2017-11-30T16:19:28.087Z,2.50
2017-11-30T16:21:55.635Z,2.50
2017-11-30T16:24:23.147Z,2.50
2017-11-30T16:26:50.649Z,2.40
2017-11-30T16:29:18.178Z,2.40
2017-11-30T16:53:33.859Z,3.00
2017-11-30T16:56:01.372Z,2.90
2017-11-30T16:58:28.863Z,2.90
2017-11-30T17:00:56.383Z,2.90
2017-11-30T17:03:24.315Z,2.80
2017-11-30T17:05:52.580Z,2.70
2017-11-30T17:08:20.079Z,2.70
2017-11-30T17:10:47.589Z,2.70
2017-11-30T17:13:15.090Z,2.70
2017-11-30T17:15:42.584Z,2.60
2017-11-30T17:18:10.165Z,2.60
2017-11-30T17:20:37.684Z,2.60
2017-11-30T17:23:05.196Z,2.60
2017-11-30T17:25:33.479Z,2.60
2017-11-30T17:28:01.744Z,2.60
2017-11-30T17:30:29.256Z,2.60
2017-11-30T17:32:56.763Z,2.60
2017-11-30T17:35:25.027Z,2.70
2017-11-30T17:37:52.530Z,2.70
2017-11-30T17:40:20.032Z,2.70
2017-11-30T17:42:47.558Z,2.60
2017-11-30T17:45:15.255Z,2.60
2017-11-30T17:47:42.874Z,2.60
2017-11-30T17:50:10.391Z,2.60
2017-11-30T17:52:38.659Z,2.60
2017-11-30T17:55:06.351Z,2.60
2017-11-30T17:57:34.616Z,2.70
2017-11-30T18:00:02.913Z,2.70
2017-11-30T18:02:30.440Z,2.70
2017-11-30T18:04:59.447Z,2.70
2017-11-30T18:07:27.735Z,2.80
2017-11-30T18:09:56.011Z,2.80
2017-11-30T18:12:24.275Z,2.80
2017-11-30T18:14:52.543Z,2.70
2017-11-30T18:17:20.038Z,2.70
2017-11-30T18:19:47.559Z,2.70
2017-11-30T18:22:15.086Z,2.70
2017-11-30T18:24:42.575Z,2.70
2017-11-30T18:27:10.096Z,2.80
2017-11-30T18:29:37.587Z,2.80
2017-11-30T18:32:05.091Z,2.80
2017-11-30T18:34:32.602Z,2.80
2017-11-30T18:37:00.105Z,2.80
2017-11-30T18:39:27.616Z,2.80
2017-11-30T18:41:55.123Z,2.80
2017-11-30T18:44:22.639Z,2.80
2017-11-30T18:46:50.147Z,2.70
2017-11-30T18:49:17.642Z,2.70
2017-11-30T18:51:45.163Z,2.80
2017-11-30T18:54:12.655Z,2.80
2017-11-30T18:56:40.147Z,2.80
2017-11-30T18:59:08.419Z,2.80
2017-11-30T19:01:36.683Z,2.80
2017-11-30T19:04:04.200Z,2.80
2017-11-30T19:06:31.715Z,2.80
2017-11-30T19:08:59.976Z,2.70
2017-11-30T19:11:27.487Z,2.70
2017-11-30T19:13:54.987Z,2.70
2017-11-30T19:16:22.511Z,2.60
2017-11-30T19:18:50.024Z,2.70
2017-11-30T19:21:18.290Z,2.60
2017-11-30T19:23:46.564Z,2.60
2017-11-30T19:26:14.839Z,2.60
2017-11-30T19:28:42.339Z,2.60
2017-11-30T19:31:09.855Z,2.60
2017-11-30T19:33:37.346Z,2.60
2017-11-30T19:36:04.872Z,2.60
2017-11-30T19:38:32.367Z,2.60
2017-11-30T19:40:59.999Z,2.70
2017-11-30T19:43:28.320Z,2.60
2017-11-30T19:45:55.843Z,2.60
2017-11-30T19:48:24.103Z,2.60
2017-11-30T19:50:51.606Z,2.60
2017-11-30T19:53:19.120Z,2.60
2017-11-30T19:55:47.516Z,2.50
2017-11-30T19:58:15.787Z,2.50
2017-11-30T20:00:44.073Z,2.50
2017-11-30T20:03:11.620Z,2.50
2017-11-30T20:05:39.907Z,2.50
2017-11-30T20:08:08.181Z,2.60
2017-11-30T20:10:36.440Z,2.60
2017-11-30T20:13:03.937Z,2.50
2017-11-30T20:15:31.573Z,2.60
2017-11-30T20:17:59.855Z,2.60
2017-11-30T20:20:28.116Z,2.70
2017-11-30T20:22:55.615Z,2.70
2017-11-30T20:25:23.881Z,2.70
2017-11-30T20:27:51.383Z,2.70
2017-11-30T20:30:18.891Z,2.70
2017-11-30T20:32:46.391Z,2.70
2017-11-30T20:35:13.883Z,2.70
2017-11-30T20:37:41.376Z,2.70
2017-11-30T20:40:09.013Z,2.60
2017-11-30T20:42:37.277Z,2.70
2017-11-30T20:45:04.772Z,2.60
2017-11-30T20:47:32.264Z,2.70
2017-11-30T20:49:59.767Z,2.60
2017-11-30T20:52:28.081Z,2.60
2017-11-30T20:54:55.571Z,2.70
2017-11-30T20:57:23.086Z,2.60
2017-11-30T20:59:50.695Z,2.60
2017-11-30T21:02:18.190Z,2.70
2017-11-30T21:04:45.692Z,2.70
2017-11-30T21:07:13.187Z,2.70
2017-11-30T21:09:41.448Z,2.60
2017-11-30T21:12:09.727Z,2.60
2017-11-30T21:14:37.244Z,2.60
2017-11-30T21:17:04.743Z,2.60
2017-11-30T21:19:32.244Z,2.60
2017-11-30T21:21:59.739Z,2.60
2017-11-30T21:24:27.247Z,2.60
2017-11-30T21:26:55.523Z,2.50
2017-11-30T21:29:23.787Z,2.50
2017-11-30T21:31:51.315Z,2.50
2017-11-30T21:34:18.811Z,2.50
2017-11-30T21:36:47.522Z,2.50
2017-11-30T21:39:15.023Z,2.50
2017-11-30T21:41:42.512Z,2.50
2017-11-30T21:44:10.775Z,2.50
2017-11-30T21:46:39.039Z,2.50
2017-11-30T21:49:06.532Z,2.50
2017-11-30T21:51:34.046Z,2.60
2017-11-30T21:54:01.564Z,2.50
2017-11-30T21:56:29.198Z,2.50
2017-11-30T21:58:57.463Z,2.50
2017-11-30T22:01:25.072Z,2.50
2017-11-30T22:03:52.583Z,2.50
2017-11-30T22:06:20.843Z,2.60
2017-11-30T22:08:48.372Z,2.50
2017-11-30T22:11:16.091Z,2.50
2017-11-30T22:13:44.568Z,2.50
2017-11-30T22:16:12.831Z,2.50
2017-11-30T22:18:40.359Z,2.40
2017-11-30T22:21:07.878Z,2.50
2017-11-30T22:23:36.143Z,2.50
2017-11-30T22:26:04.409Z,2.40
2017-11-30T22:28:32.667Z,2.50
2017-11-30T22:31:00.188Z,2.50
2017-11-30T22:33:27.688Z,2.50
2017-11-30T22:35:55.210Z,2.50
2017-11-30T22:38:22.709Z,2.50
2017-11-30T22:40:50.223Z,2.50
2017-11-30T22:43:17.719Z,2.60
2017-11-30T22:45:45.214Z,2.60
2017-11-30T22:48:13.497Z,2.50
2017-11-30T22:50:41.772Z,2.50
2017-11-30T22:53:09.271Z,2.50
2017-11-30T22:55:36.768Z,2.50
2017-11-30T22:58:05.031Z,2.50
2017-11-30T23:00:41.623Z,2.40
2017-11-30T23:03:10.342Z,2.40
2017-11-30T23:05:37.855Z,2.40
2017-11-30T23:08:06.142Z,2.40
2017-11-30T23:10:34.405Z,2.40
2017-11-30T23:13:02.684Z,2.40
2017-11-30T23:15:30.963Z,2.40
2017-11-30T23:17:59.236Z,2.40
2017-11-30T23:20:26.733Z,2.30
2017-11-30T23:22:54.222Z,2.40
2017-11-30T23:25:21.750Z,2.40
2017-11-30T23:27:49.247Z,2.40
2017-11-30T23:30:16.764Z,2.40
2017-11-30T23:32:44.274Z,2.30
2017-11-30T23:35:11.784Z,2.30
2017-11-30T23:37:39.282Z,2.30
2017-11-30T23:40:06.792Z,2.40
2017-11-30T23:42:34.291Z,2.40
2017-11-30T23:45:01.813Z,2.40
2017-11-30T23:47:29.319Z,2.40
2017-11-30T23:49:56.836Z,2.40
2017-11-30T23:52:24.350Z,2.40
2017-11-30T23:54:51.852Z,2.30
2017-11-30T23:57:19.349Z,2.30
2017-11-30T23:59:46.847Z,2.20
